< < Back
Terminal Aerodrome Forecast


Current Version              Previous Versions:   1  2  3  4  5  6  7  8  9  

Terminal Aerodrome Forecast

983
FTUS42 KFFC 220332 AAB
TAFMCN
TAF AMD
KMCN 220332Z 2203/2224 07007KT 4SM BR OVC006
      TEMPO 2204/2206 2SM -DZ BR
     FM220600 06004KT 2SM -RADZ BR OVC004
     FM221600 06006KT 4SM -DZ BR OVC006
     FM222000 07007KT 6SM BR OVC012=



Latest METAR

566
SAUS80 KWBC 221200 RRC
MTRMCN
METAR KMCN 221153Z AUTO 07005KT 4SM BR OVC004 08/08 A3004 RMK AO2 SLP171
60001 70004 T00830083 10083 20083 53004 TSNO


USA.gov is the U.S. government's official web portal to all federal, state and local government web resources and services.